Stratford, South Dakota
Current Conditions -  °F | °C
As of 12:53 PM on Tuesday 27 Jan 2015 (Local Time) from KABR Reporting Station
Clear Clear  
Wind Chill: 34°   Ceiling: Unl
Heat Index: 42°   Visibility: 10mi
Dew Point: 35°   Wind: 17mph
Humidity: 76%   Direction: 160°SSE
Pressure: 29.97"   Gusts: NA
Location:  45.32°N, 98.3°W
Report Text: KABR 271853Z AUTO 16015KT 10SM CLR 06/02 A2997 RMK AO2 SLP161 T00560017
Loading
Personal Weather Stations






























Interactive Weather Map New forecast layout! Learn more

10-Day Weather Forecast

Advertisements
Track Severe Weather on mobile